createdAt,value
2023-02-16T00:01:19.584Z,102367.38
2023-02-16T00:03:46.223Z,102357.66
2023-02-16T00:06:15.983Z,102374.56
2023-02-16T00:08:50.507Z,102361.47
2023-02-16T00:11:39.895Z,102405.44
2023-02-16T00:14:09.422Z,102378.69
2023-02-16T00:16:35.998Z,102380.44
2023-02-16T00:19:11.468Z,102396.28
2023-02-16T00:21:37.932Z,102368.16
2023-02-16T00:24:04.446Z,102376.69
2023-02-16T00:26:31.372Z,102357.72
2023-02-16T00:28:59.049Z,102334.38
2023-02-16T00:31:27.737Z,102394.47
2023-02-16T00:33:54.427Z,102371.03
2023-02-16T00:36:21.396Z,102392.16
2023-02-16T00:38:47.813Z,102377.00
2023-02-16T00:41:38.753Z,102380.94
2023-02-16T00:44:32.815Z,102388.53
2023-02-16T00:47:01.787Z,102388.31
2023-02-16T00:49:28.168Z,102315.38
2023-02-16T00:51:54.933Z,102372.63
2023-02-16T00:54:21.343Z,102356.94
2023-02-16T00:56:48.059Z,102331.19
2023-02-16T00:59:17.973Z,102375.00
2023-02-16T01:01:45.044Z,102370.59
2023-02-16T01:04:18.793Z,102329.75
2023-02-16T01:07:04.046Z,102349.94
2023-02-16T01:09:49.181Z,102316.50
2023-02-16T01:12:17.797Z,102346.72
2023-02-16T01:14:46.058Z,102367.66
2023-02-16T01:17:12.500Z,102341.28
2023-02-16T01:19:39.013Z,102346.34
2023-02-16T01:22:05.707Z,102336.06
2023-02-16T01:24:32.115Z,102333.41
2023-02-16T01:26:58.530Z,102282.56
2023-02-16T01:29:24.962Z,102328.09
2023-02-16T01:31:51.479Z,102366.38
2023-02-16T01:34:18.080Z,102338.47
2023-02-16T01:36:46.923Z,102348.69
2023-02-16T01:39:17.045Z,102373.59
2023-02-16T01:41:55.702Z,102362.03
2023-02-16T01:44:33.602Z,102356.22
2023-02-16T01:47:05.529Z,102358.59
2023-02-16T01:49:32.004Z,102341.41
2023-02-16T01:52:03.061Z,102359.78
2023-02-16T01:54:43.233Z,102355.56
2023-02-16T01:57:31.765Z,102325.78
2023-02-16T01:59:58.054Z,102353.72
2023-02-16T02:02:26.569Z,102325.75
2023-02-16T02:05:13.155Z,102319.31
2023-02-16T02:07:50.209Z,102301.59
2023-02-16T02:10:38.937Z,102314.00
2023-02-16T02:13:07.546Z,102333.69
2023-02-16T02:15:34.371Z,102327.31
2023-02-16T02:18:01.183Z,102319.81
2023-02-16T02:21:27.673Z,102322.00
2023-02-16T02:24:14.094Z,102326.25
2023-02-16T02:27:20.951Z,102322.75
2023-02-16T02:30:06.192Z,102295.19
2023-02-16T02:33:02.186Z,102300.88
2023-02-16T02:35:38.843Z,102294.25
2023-02-16T02:38:17.182Z,102313.81
2023-02-16T02:41:01.255Z,102320.38
2023-02-16T02:43:43.863Z,102292.31
2023-02-16T02:46:11.633Z,102311.28
2023-02-16T02:48:38.270Z,102274.13
2023-02-16T02:51:30.108Z,102307.63
2023-02-16T02:54:31.583Z,102303.19
2023-02-16T02:57:36.978Z,102298.03
2023-02-16T03:00:35.244Z,102275.53
2023-02-16T03:03:21.052Z,102272.13
2023-02-16T03:05:57.544Z,102272.03
2023-02-16T03:08:26.014Z,102281.84
2023-02-16T03:11:23.229Z,102250.38
2023-02-16T03:14:15.106Z,102256.38
2023-02-16T03:16:45.076Z,102249.06
2023-02-16T03:19:32.202Z,102267.84
2023-02-16T03:22:18.073Z,102247.53
2023-02-16T03:25:03.682Z,102250.22
2023-02-16T03:27:59.506Z,102248.97
2023-02-16T03:30:26.577Z,102266.41
2023-02-16T03:32:53.181Z,102250.75
2023-02-16T03:35:19.749Z,102249.59
2023-02-16T03:37:46.824Z,102251.69
2023-02-16T03:40:29.876Z,102266.22
2023-02-16T03:43:05.874Z,102266.66
2023-02-16T03:45:35.049Z,102250.03
2023-02-16T03:48:02.419Z,102254.78
2023-02-16T03:50:29.497Z,102269.25
2023-02-16T03:53:18.344Z,102266.84
2023-02-16T03:55:46.807Z,102275.13
2023-02-16T03:58:15.717Z,102281.53
2023-02-16T04:00:42.471Z,102286.44
2023-02-16T04:03:09.087Z,102263.03
2023-02-16T04:05:35.748Z,102288.84
2023-02-16T04:08:02.596Z,102289.66
2023-02-16T04:10:29.064Z,102283.78
2023-02-16T04:12:55.521Z,102254.88
2023-02-16T04:15:24.159Z,102276.66
2023-02-16T04:17:50.719Z,102255.81
2023-02-16T04:20:19.970Z,102245.91
2023-02-16T04:22:46.722Z,102276.66
2023-02-16T04:25:13.997Z,102272.53
2023-02-16T04:27:41.390Z,102263.44
2023-02-16T04:30:10.559Z,102270.47
2023-02-16T04:32:37.081Z,102249.31
2023-02-16T04:35:03.643Z,102236.00
2023-02-16T04:37:30.068Z,102256.44
2023-02-16T04:39:56.689Z,102276.97
2023-02-16T04:42:23.305Z,102267.38
2023-02-16T04:44:49.881Z,102251.56
2023-02-16T04:47:16.344Z,102248.38
2023-02-16T04:49:42.792Z,102267.28
2023-02-16T04:52:09.489Z,102245.50
2023-02-16T04:54:35.944Z,102259.53
2023-02-16T04:57:02.389Z,102272.31
2023-02-16T04:59:28.790Z,102269.53
2023-02-16T05:01:55.386Z,102252.31
2023-02-16T05:04:21.918Z,102263.63
2023-02-16T05:06:48.332Z,102244.06
2023-02-16T05:09:14.889Z,102262.72
2023-02-16T05:11:59.618Z,102225.06
2023-02-16T05:14:45.355Z,102256.09
2023-02-16T05:17:13.649Z,102238.38
2023-02-16T05:19:41.052Z,102223.00
2023-02-16T05:22:07.990Z,102233.03
2023-02-16T05:24:37.321Z,102239.69
2023-02-16T05:27:05.926Z,102178.75
2023-02-16T05:29:32.494Z,102225.97
2023-02-16T05:31:59.279Z,102218.34
2023-02-16T05:34:25.923Z,102218.56
2023-02-16T05:36:52.529Z,102205.16
2023-02-16T05:39:19.126Z,102212.25
2023-02-16T05:41:45.611Z,102215.69
2023-02-16T05:44:12.618Z,102240.84
2023-02-16T05:46:40.170Z,102239.09
2023-02-16T05:49:08.042Z,102190.53
2023-02-16T05:51:35.620Z,102244.34
2023-02-16T05:54:02.254Z,102241.47
2023-02-16T05:56:29.055Z,102246.81
2023-02-16T05:58:55.907Z,102265.00
2023-02-16T06:01:22.470Z,102246.31
2023-02-16T06:03:48.883Z,102225.28
2023-02-16T06:06:15.395Z,102246.66
2023-02-16T06:08:41.844Z,102236.00
2023-02-16T06:11:28.356Z,102209.81
2023-02-16T06:13:58.069Z,102224.56
2023-02-16T06:16:28.972Z,102237.16
2023-02-16T06:18:56.029Z,102231.06
2023-02-16T06:21:23.203Z,102226.31
2023-02-16T06:23:49.675Z,102234.56
2023-02-16T06:26:16.610Z,102226.22
2023-02-16T06:28:43.062Z,102229.94
2023-02-16T06:31:09.579Z,102236.44
2023-02-16T06:33:36.158Z,102219.63
2023-02-16T06:36:02.760Z,102232.09
2023-02-16T06:38:29.132Z,102230.94
2023-02-16T06:40:55.554Z,102203.00
2023-02-16T06:43:21.988Z,102242.41
2023-02-16T06:45:49.016Z,102263.97
2023-02-16T06:48:15.745Z,102250.31
2023-02-16T06:50:42.229Z,102261.16
2023-02-16T06:53:08.728Z,102223.44
2023-02-16T06:55:36.698Z,102237.34
2023-02-16T06:58:07.013Z,102224.06
2023-02-16T07:00:34.202Z,102244.78
2023-02-16T07:03:00.721Z,102235.38
2023-02-16T07:05:27.238Z,102263.13
2023-02-16T07:07:53.661Z,102250.66
2023-02-16T07:10:20.584Z,102246.75
2023-02-16T07:12:47.694Z,102255.09
2023-02-16T07:15:14.198Z,102265.00
2023-02-16T07:17:40.672Z,102257.25
2023-02-16T07:20:07.976Z,102224.44
2023-02-16T07:22:34.538Z,102250.03
2023-02-16T07:25:00.975Z,102238.66
2023-02-16T07:27:27.686Z,102252.16
2023-02-16T07:29:54.183Z,102287.78
2023-02-16T07:32:20.723Z,102263.63
2023-02-16T07:34:47.179Z,102258.56
2023-02-16T07:37:13.549Z,102254.13
2023-02-16T07:39:39.967Z,102255.16
2023-02-16T07:42:06.373Z,102252.06
2023-02-16T07:44:32.816Z,102281.34
2023-02-16T07:46:59.217Z,102287.03
2023-02-16T07:49:25.626Z,102260.47
2023-02-16T07:51:52.056Z,102255.72
2023-02-16T07:54:18.478Z,102260.06
2023-02-16T07:56:45.003Z,102256.75
2023-02-16T07:59:11.713Z,102305.66
2023-02-16T08:01:38.223Z,102301.94
2023-02-16T08:04:04.693Z,102286.06
2023-02-16T08:06:31.134Z,102295.47
2023-02-16T08:08:57.699Z,102307.72
2023-02-16T08:11:24.641Z,102313.28
2023-02-16T08:13:52.225Z,102311.53
2023-02-16T08:16:27.164Z,102314.94
2023-02-16T08:18:56.211Z,102313.47
2023-02-16T08:21:25.194Z,102316.38
2023-02-16T08:24:03.102Z,102321.09
2023-02-16T08:26:41.231Z,102301.97
2023-02-16T08:29:13.082Z,102301.75
2023-02-16T08:31:39.919Z,102309.91
2023-02-16T08:34:06.882Z,102286.91
2023-02-16T08:36:38.176Z,102301.16
2023-02-16T08:39:08.088Z,102221.16
2023-02-16T08:41:36.608Z,102301.66
2023-02-16T08:44:05.340Z,102330.72
2023-02-16T08:46:33.175Z,102330.94
2023-02-16T08:49:00.940Z,102330.72
2023-02-16T08:51:34.593Z,102327.66
2023-02-16T08:54:04.275Z,102330.72
2023-02-16T08:56:33.066Z,102307.22
2023-02-16T08:58:59.897Z,102354.81
2023-02-16T09:01:26.420Z,102300.03
2023-02-16T09:03:53.599Z,102347.78
2023-02-16T09:06:21.463Z,102319.22
2023-02-16T09:09:07.128Z,102348.78
2023-02-16T09:11:33.607Z,102325.13
2023-02-16T09:14:00.423Z,102294.66
2023-02-16T09:16:37.939Z,102293.44
2023-02-16T09:19:05.045Z,102245.06
2023-02-16T09:21:32.946Z,102303.94
2023-02-16T09:24:02.030Z,102330.28
2023-02-16T09:26:32.453Z,102320.88
2023-02-16T09:28:59.320Z,102236.03
2023-02-16T09:31:32.460Z,102325.00
2023-02-16T09:34:05.191Z,102281.91
2023-02-16T09:36:32.040Z,102314.22
2023-02-16T09:38:58.441Z,102245.19
2023-02-16T09:42:01.832Z,102288.59
2023-02-16T09:44:40.256Z,102327.75
2023-02-16T09:47:15.551Z,102286.25
2023-02-16T09:49:44.063Z,102330.94
2023-02-16T09:52:19.750Z,102280.47
2023-02-16T09:54:49.412Z,102297.44
2023-02-16T09:57:37.872Z,102333.53
2023-02-16T10:00:08.189Z,102338.69
2023-02-16T10:02:45.899Z,102304.19
2023-02-16T10:05:21.847Z,102312.34
2023-02-16T10:08:00.147Z,102320.00
2023-02-16T10:10:50.673Z,102330.28
2023-02-16T10:13:29.916Z,102333.16
2023-02-16T10:15:57.673Z,102307.50
2023-02-16T10:18:34.015Z,102339.41
2023-02-16T10:21:05.154Z,102321.91
2023-02-16T10:23:44.301Z,102306.72
2023-02-16T10:26:20.152Z,102294.16
2023-02-16T10:28:49.613Z,102340.44
2023-02-16T10:31:36.029Z,102305.94
2023-02-16T10:34:17.981Z,102322.22
2023-02-16T10:37:20.645Z,102308.09
2023-02-16T10:39:56.008Z,102326.09
2023-02-16T10:42:36.949Z,102333.41
2023-02-16T10:45:15.570Z,102338.72
2023-02-16T10:47:43.598Z,102344.13
2023-02-16T10:50:16.007Z,102332.84
2023-02-16T10:52:42.566Z,102274.81
2023-02-16T10:55:09.414Z,102296.44
2023-02-16T10:57:35.805Z,102302.81
2023-02-16T11:00:10.435Z,102291.28
2023-02-16T11:02:42.616Z,102253.50
2023-02-16T11:05:42.266Z,102312.22
2023-02-16T11:08:12.576Z,102278.34
2023-02-16T11:10:48.184Z,102310.78
2023-02-16T11:13:22.334Z,102293.94
2023-02-16T11:15:52.548Z,102205.41
2023-02-16T11:18:33.954Z,102249.88
2023-02-16T11:21:01.422Z,102306.91
2023-02-16T11:23:35.969Z,102300.72
2023-02-16T11:26:11.741Z,102295.78
2023-02-16T11:28:39.547Z,102296.34
2023-02-16T11:31:29.272Z,102298.56
2023-02-16T11:34:08.296Z,102234.31
2023-02-16T11:37:20.939Z,102275.63
2023-02-16T11:39:50.465Z,102254.13
2023-02-16T11:42:26.298Z,102275.22
2023-02-16T11:44:54.779Z,102284.59
2023-02-16T11:47:25.282Z,102285.28
2023-02-16T11:50:13.230Z,102280.97
2023-02-16T11:52:39.700Z,102265.00
2023-02-16T11:55:20.305Z,102216.16
2023-02-16T11:57:47.190Z,102242.28
2023-02-16T12:00:19.403Z,102247.22
2023-02-16T12:03:06.201Z,102265.03
2023-02-16T12:06:11.843Z,102250.66
2023-02-16T12:08:51.973Z,102252.53
2023-02-16T12:11:26.310Z,102230.53
2023-02-16T12:14:17.718Z,102236.56
2023-02-16T12:16:51.785Z,102239.75
2023-02-16T12:19:48.744Z,102211.72
2023-02-16T12:22:23.446Z,102221.41
2023-02-16T12:25:23.951Z,102221.44
2023-02-16T12:27:56.600Z,102192.53
2023-02-16T12:30:38.963Z,102191.53
2023-02-16T12:33:27.615Z,102196.03
2023-02-16T12:36:15.981Z,102160.50
2023-02-16T12:38:46.657Z,102196.47
2023-02-16T12:41:37.198Z,102190.25
2023-02-16T12:44:07.030Z,102185.91
2023-02-16T12:46:33.863Z,102181.56
2023-02-16T12:49:05.109Z,102163.06
2023-02-16T12:51:37.565Z,102179.09
2023-02-16T12:54:15.165Z,102177.66
2023-02-16T12:57:09.263Z,102163.13
2023-02-16T12:59:44.566Z,102172.66
2023-02-16T13:02:37.002Z,102172.97
2023-02-16T13:05:09.601Z,102172.22
2023-02-16T13:07:39.746Z,102171.38
2023-02-16T13:10:15.470Z,102180.13
2023-02-16T13:12:50.096Z,102161.75
2023-02-16T13:15:45.741Z,102170.59
2023-02-16T13:18:25.393Z,102172.38
2023-02-16T13:20:59.142Z,102133.03
2023-02-16T13:23:43.757Z,102164.41
2023-02-16T13:26:19.127Z,102150.56
2023-02-16T13:29:28.986Z,102148.53
2023-02-16T13:32:04.524Z,102136.34
2023-02-16T13:34:51.461Z,102127.91
2023-02-16T13:37:55.676Z,102121.09
2023-02-16T13:40:28.796Z,102123.00
2023-02-16T13:42:58.273Z,102102.47
2023-02-16T13:45:28.523Z,102041.34
2023-02-16T13:47:56.197Z,102025.03
2023-02-16T13:50:22.894Z,102099.53
2023-02-16T13:52:51.964Z,102013.81
2023-02-16T13:55:30.716Z,102057.56
2023-02-16T13:58:20.481Z,102058.09
2023-02-16T14:00:48.964Z,102098.41
2023-02-16T14:03:21.318Z,102101.16
2023-02-16T14:05:53.019Z,102062.63
2023-02-16T14:08:30.726Z,102080.94
2023-02-16T14:11:05.875Z,102047.56
2023-02-16T14:13:45.221Z,102082.63
2023-02-16T14:16:17.574Z,102080.25
2023-02-16T14:18:56.198Z,102057.41
2023-02-16T14:21:29.222Z,102081.28
2023-02-16T14:24:00.501Z,102069.69
2023-02-16T14:26:27.178Z,102037.38
2023-02-16T14:29:02.790Z,102045.31
2023-02-16T14:31:31.731Z,102067.84
2023-02-16T14:34:20.462Z,102068.06
2023-02-16T14:37:12.030Z,102066.41
2023-02-16T14:39:58.432Z,102030.84
2023-02-16T14:42:31.901Z,102032.25
2023-02-16T14:45:19.815Z,101988.31
2023-02-16T14:47:50.448Z,102065.47
2023-02-16T14:50:28.613Z,102043.00
2023-02-16T14:53:19.455Z,102056.19
2023-02-16T14:56:07.943Z,102075.44
2023-02-16T14:58:54.536Z,102076.25
2023-02-16T15:01:22.515Z,102051.00
2023-02-16T15:03:52.573Z,102060.56
2023-02-16T15:06:25.061Z,102082.03
2023-02-16T15:08:57.177Z,102055.38
2023-02-16T15:11:33.162Z,102068.50
2023-02-16T15:14:05.816Z,102064.81
2023-02-16T15:16:33.561Z,102011.13
2023-02-16T15:19:05.629Z,102087.66
2023-02-16T15:21:32.025Z,102064.81
2023-02-16T15:24:00.321Z,102061.53
2023-02-16T15:26:29.693Z,102037.72
2023-02-16T15:28:59.003Z,101979.88
2023-02-16T15:31:32.818Z,102087.63
2023-02-16T15:34:05.763Z,102072.16
2023-02-16T15:36:43.873Z,102077.88
2023-02-16T15:39:38.466Z,102078.53
2023-02-16T15:42:20.825Z,102046.94
2023-02-16T15:44:48.756Z,102015.22
2023-02-16T15:47:24.394Z,102000.44
2023-02-16T15:49:51.735Z,102076.50
2023-02-16T15:52:22.915Z,102036.72
2023-02-16T15:54:49.990Z,101915.03
2023-02-16T15:57:24.531Z,102057.91
2023-02-16T15:59:59.949Z,102043.53
2023-02-16T16:02:35.967Z,102036.41
2023-02-16T16:05:05.448Z,102053.66
2023-02-16T16:07:35.608Z,102064.59
2023-02-16T16:10:07.646Z,102011.69
2023-02-16T16:12:34.209Z,102054.63
2023-02-16T16:15:01.914Z,102025.59
2023-02-16T16:17:31.340Z,102011.53
2023-02-16T16:19:59.587Z,102041.47
2023-02-16T16:22:39.630Z,102042.81
2023-02-16T16:25:30.250Z,102052.53
2023-02-16T16:27:57.094Z,102009.00
2023-02-16T16:30:23.407Z,102045.81
2023-02-16T16:33:07.805Z,101999.41
2023-02-16T16:35:48.542Z,102032.69
2023-02-16T16:38:27.133Z,102024.34
2023-02-16T16:40:55.213Z,101997.75
2023-02-16T16:43:26.603Z,102017.13
2023-02-16T16:46:11.376Z,101968.22
2023-02-16T16:48:42.836Z,101997.94
2023-02-16T16:51:11.099Z,102010.25
2023-02-16T16:54:00.384Z,101931.06
2023-02-16T16:56:28.576Z,101969.59
2023-02-16T16:58:57.614Z,101999.97
2023-02-16T17:01:25.754Z,101994.31
2023-02-16T17:03:52.511Z,102002.00
2023-02-16T17:06:19.153Z,101988.63
2023-02-16T17:08:46.490Z,101962.16
2023-02-16T17:11:21.137Z,101965.84
2023-02-16T17:13:47.550Z,101950.69
2023-02-16T17:16:17.572Z,101920.59
2023-02-16T17:18:44.034Z,101927.88
2023-02-16T17:21:12.685Z,101986.28
2023-02-16T17:23:45.141Z,101953.78
2023-02-16T17:26:16.896Z,101952.94
2023-02-16T17:28:43.261Z,101956.38
2023-02-16T17:31:10.584Z,101990.97
2023-02-16T17:33:37.078Z,101974.84
2023-02-16T17:36:05.245Z,101973.75
2023-02-16T17:38:31.896Z,101982.63
2023-02-16T17:40:58.605Z,101991.88
2023-02-16T17:43:26.142Z,101990.28
2023-02-16T17:45:54.272Z,102001.16
2023-02-16T17:48:21.899Z,101988.31
2023-02-16T17:50:49.376Z,101974.63
2023-02-16T17:53:20.222Z,101990.22
2023-02-16T17:55:48.629Z,101988.19
2023-02-16T17:58:16.171Z,101990.47
2023-02-16T18:00:43.671Z,101968.19
2023-02-16T18:03:10.290Z,101967.34
2023-02-16T18:05:37.133Z,101990.34
2023-02-16T18:08:03.641Z,101912.53
2023-02-16T18:10:32.125Z,101976.25
2023-02-16T18:12:58.577Z,101957.72
2023-02-16T18:15:24.992Z,101864.03
2023-02-16T18:17:51.416Z,101952.59
2023-02-16T18:20:18.035Z,101902.59
2023-02-16T18:22:44.617Z,101887.31
2023-02-16T18:25:11.158Z,101905.81
2023-02-16T18:27:37.595Z,101901.34
2023-02-16T18:30:04.312Z,101927.53
2023-02-16T18:32:30.759Z,101879.69
2023-02-16T18:34:57.218Z,101951.69
2023-02-16T18:37:24.618Z,101894.09
2023-02-16T18:39:51.055Z,101867.84
2023-02-16T18:42:17.561Z,101931.94
2023-02-16T18:44:45.240Z,101987.31
2023-02-16T18:47:11.701Z,101908.06
2023-02-16T18:49:38.176Z,101924.03
2023-02-16T18:52:04.605Z,101984.22
2023-02-16T18:54:32.270Z,101873.84
2023-02-16T18:56:58.775Z,101981.75
2023-02-16T18:59:25.425Z,101959.00
2023-02-16T19:01:56.303Z,101909.97
2023-02-16T19:04:22.963Z,101963.56
2023-02-16T19:06:49.734Z,101943.31
2023-02-16T19:09:16.199Z,101986.00
2023-02-16T19:11:42.692Z,101982.31
2023-02-16T19:14:09.200Z,101970.81
2023-02-16T19:16:35.756Z,101962.78
2023-02-16T19:19:02.136Z,101926.81
2023-02-16T19:21:28.527Z,101954.59
2023-02-16T19:23:55.035Z,101897.94
2023-02-16T19:26:21.447Z,101944.88
2023-02-16T19:28:47.888Z,101931.88
2023-02-16T19:31:26.010Z,101949.66
2023-02-16T19:33:52.717Z,101946.94
2023-02-16T19:36:19.770Z,101970.22
2023-02-16T19:38:46.728Z,101976.38
2023-02-16T19:41:18.251Z,101971.72
2023-02-16T19:43:45.235Z,101891.97
2023-02-16T19:46:12.443Z,101953.69
2023-02-16T19:48:40.698Z,101952.44
2023-02-16T19:51:08.766Z,101964.59
2023-02-16T19:53:36.826Z,101970.91
2023-02-16T19:56:05.412Z,101968.31
2023-02-16T19:58:31.979Z,101968.44
2023-02-16T20:00:58.341Z,101882.88
2023-02-16T20:03:24.766Z,101952.19
2023-02-16T20:05:51.225Z,101940.28
2023-02-16T20:08:17.789Z,101941.94
2023-02-16T20:10:44.471Z,101932.88
2023-02-16T20:13:11.032Z,101919.94
2023-02-16T20:15:37.464Z,101922.13
2023-02-16T20:18:05.811Z,101913.47
2023-02-16T20:20:32.195Z,101920.34
2023-02-16T20:22:58.596Z,101913.38
2023-02-16T20:25:25.132Z,101939.38
2023-02-16T20:27:51.556Z,101871.44
2023-02-16T20:30:20.844Z,101936.09
2023-02-16T20:32:48.193Z,101960.31
2023-02-16T20:35:15.123Z,101914.50
2023-02-16T20:37:41.597Z,101852.63
2023-02-16T20:40:08.363Z,101879.25
2023-02-16T20:42:34.914Z,101908.31
2023-02-16T20:45:01.444Z,101905.50
2023-02-16T20:47:27.884Z,101870.25
2023-02-16T20:49:54.406Z,101848.81
2023-02-16T20:52:20.789Z,101886.97
2023-02-16T20:54:47.249Z,101895.28
2023-02-16T20:57:26.039Z,101902.91
2023-02-16T20:59:53.201Z,101919.56
2023-02-16T21:02:19.642Z,101937.09
2023-02-16T21:04:46.059Z,101947.84
2023-02-16T21:07:12.450Z,101890.06
2023-02-16T21:09:38.818Z,101853.47
2023-02-16T21:12:05.520Z,101919.19
2023-02-16T21:14:31.929Z,101913.59
2023-02-16T21:16:58.519Z,101928.63
2023-02-16T21:19:25.005Z,101895.41
2023-02-16T21:21:52.111Z,101946.78
2023-02-16T21:24:18.522Z,101943.22
2023-02-16T21:26:44.966Z,101908.66
2023-02-16T21:29:11.377Z,101901.03
2023-02-16T21:31:37.855Z,101904.75
2023-02-16T21:34:04.387Z,101937.66
2023-02-16T21:36:30.901Z,101902.66
2023-02-16T21:38:57.378Z,101930.25
2023-02-16T21:41:26.049Z,101897.09
2023-02-16T21:43:52.446Z,101925.50
2023-02-16T21:46:19.170Z,101873.03
2023-02-16T21:48:46.427Z,101914.88
2023-02-16T21:51:14.818Z,101921.16
2023-02-16T21:53:41.404Z,101824.28
2023-02-16T21:56:16.920Z,101847.38
2023-02-16T21:58:43.769Z,101876.88
2023-02-16T22:01:10.215Z,101861.44
2023-02-16T22:03:36.893Z,101883.19
2023-02-16T22:06:05.193Z,101883.16
2023-02-16T22:08:33.919Z,101932.09
2023-02-16T22:11:11.835Z,101915.13
2023-02-16T22:13:39.779Z,101903.53
2023-02-16T22:16:15.597Z,101914.06
2023-02-16T22:18:42.506Z,101932.78
2023-02-16T22:21:09.701Z,101919.22
2023-02-16T22:23:37.012Z,101897.78
2023-02-16T22:26:04.461Z,101932.09
2023-02-16T22:28:31.154Z,101893.16
2023-02-16T22:30:58.022Z,101926.50
2023-02-16T22:33:24.482Z,101890.38
2023-02-16T22:35:50.881Z,101899.94
2023-02-16T22:38:17.343Z,101905.31
2023-02-16T22:40:43.795Z,101906.22
2023-02-16T22:43:10.171Z,101844.91
2023-02-16T22:45:37.221Z,101900.81
2023-02-16T22:48:03.895Z,101823.34
2023-02-16T22:50:30.280Z,101925.78
2023-02-16T22:52:56.703Z,101853.88
2023-02-16T22:55:23.149Z,101908.28
2023-02-16T22:57:49.610Z,101898.88
2023-02-16T23:00:17.081Z,101899.56
2023-02-16T23:02:43.697Z,101883.03
2023-02-16T23:05:10.205Z,101901.91
2023-02-16T23:07:36.708Z,101871.13
2023-02-16T23:10:03.878Z,101915.59
2023-02-16T23:12:30.307Z,101830.56
2023-02-16T23:14:56.726Z,101854.34
2023-02-16T23:17:23.205Z,101842.31
2023-02-16T23:19:52.317Z,101910.50
2023-02-16T23:22:22.647Z,101830.59
2023-02-16T23:25:11.838Z,101868.09
2023-02-16T23:27:38.237Z,101851.47
2023-02-16T23:30:05.349Z,101914.31
2023-02-16T23:32:31.751Z,101902.16
2023-02-16T23:34:59.697Z,101853.91
2023-02-16T23:37:30.426Z,101908.56
2023-02-16T23:39:57.134Z,101891.34
2023-02-16T23:42:23.611Z,101817.44
2023-02-16T23:44:50.033Z,101841.31
2023-02-16T23:47:18.854Z,101837.59
2023-02-16T23:49:48.527Z,101845.44
2023-02-16T23:52:15.586Z,101808.06
2023-02-16T23:54:42.079Z,101759.03
2023-02-16T23:57:11.833Z,101780.59
2023-02-16T23:59:41.585Z,101731.97
